Date,TemperatureHighF,TemperatureAvgF,TemperatureLowF,DewpointHighF,DewpointAvgF,DewpointLowF,HumidityHigh,HumidityAvg,HumidityLow,PressureMaxIn,PressureMinIn,WindSpeedMaxMPH,WindSpeedAvgMPH,GustSpeedMaxMPH,PrecipitationSumIn
2013-1-8,41,37,35,29,27,24,78,69,51,30.29,30.23,0,-999,0,0.00
2013-1-9,47,42,35,40,32,26,98,68,57,30.23,30.14,0,-999,0,0.00
2013-1-10,43,41,40,29,28,25,63,59,53,30.51,30.20,0,-999,0,0.00
2013-1-11,58,50,42,57,-43,-100,100,86,48,30.20,29.84,0,-999,0,0.00
2013-1-12,61,55,51,60,-73,-100,100,99,93,30.01,29.86,0,-999,0,0.00
2013-1-13,64,50,38,63,-90,-100,100,100,100,30.04,29.72,0,-999,0,0.00
2013-1-14,37,30,27,29,-10,-100,100,86,72,30.44,30.04,0,-999,0,0.00
2013-1-15,31,29,27,25,22,19,83,76,66,30.42,30.11,0,-999,0,0.00
2013-1-16,36,32,30,26,24,21,84,70,57,30.11,29.88,0,-999,0,0.00
2013-1-17,37,34,28,32,26,18,86,73,60,30.27,29.99,0,-999,0,0.00
2013-1-18,36,28,22,19,14,7,88,55,42,30.47,30.08,0,-999,0,0.00
2013-1-19,51,44,36,27,22,18,51,42,37,30.08,29.70,0,-999,0,0.00
2013-1-20,47,29,22,33,15,8,64,54,46,30.16,29.66,0,-999,0,0.00
2013-1-21,21,18,12,11,7,-2,81,60,47,30.14,29.94,0,-999,0,0.00
2013-1-22,11,9,8,6,0,-4,91,67,52,30.27,30.08,0,-999,0,0.00
2013-1-23,16,12,7,14,4,-3,99,72,55,30.28,30.07,0,-999,0,0.00
2013-1-24,22,17,13,15,-4,-100,100,67,44,30.56,30.07,0,-999,0,0.00
2013-1-25,19,16,13,17,6,-100,100,80,61,30.51,30.03,0,-999,0,0.00
2013-1-26,26,23,19,23,-29,-100,100,85,68,30.44,30.07,0,-999,0,0.00
2013-1-27,31,24,14,27,16,12,91,71,52,30.50,30.23,0,-999,0,0.00
2013-1-28,49,41,31,30,-84,-100,100,98,76,30.25,29.92,0,-999,0,0.00
2013-1-29,61,52,39,56,-86,-100,100,98,82,30.04,29.62,0,-999,0,0.00
2013-1-30,64,57,36,60,-4,-100,100,92,76,29.62,29.17,0,-999,0,0.00
2013-1-31,37,24,20,22,12,-100,100,69,49,29.87,29.28,0,-999,0,0.00
2013-2-1,20,16,13,14,-9,-100,100,74,60,30.30,29.85,0,-999,0,0.00
2013-2-2,23,18,14,20,-30,-100,100,88,66,30.28,29.96,0,-999,0,0.00
2013-2-3,22,19,16,18,-36,-100,100,88,65,30.02,29.88,0,-999,0,0.00
2013-2-4,25,21,17,24,-11,-100,100,93,79,30.04,29.87,0,-999,0,0.00
2013-2-5,29,26,23,25,-48,-100,100,87,58,29.93,29.85,0,-999,0,0.00
2013-2-6,30,26,23,21,-14,-100,100,72,49,30.32,29.93,0,-999,0,0.00
2013-2-7,46,34,23,28,22,15,72,61,45,30.29,29.84,0,-999,0,0.00
2013-2-8,42,33,27,37,-63,-100,100,92,67,30.25,29.72,0,-999,0,0.00
2013-2-9,31,26,23,26,-39,-100,100,92,59,30.43,30.27,0,-999,0,0.00
2013-2-10,50,38,24,29,21,17,91,52,30,30.31,29.78,0,-999,0,0.00
2013-2-11,50,42,35,49,-2,-100,100,74,57,29.91,29.66,0,-999,0,0.00
2013-2-12,37,33,28,29,19,-100,100,71,60,30.08,29.91,0,-999,0,0.00
2013-2-13,33,30,26,30,16,-100,100,87,69,29.92,29.76,0,-999,0,0.00
2013-2-14,40,34,26,40,-6,-100,100,93,70,29.88,29.76,0,-999,0,0.00
2013-2-15,38,32,28,29,18,-100,100,73,60,30.10,29.88,0,-999,0,0.00
2013-2-16,28,24,21,25,-6,-100,100,84,52,30.09,29.97,0,-999,0,0.00
2013-2-17,22,20,18,18,0,-100,100,75,49,30.19,29.99,0,-999,0,0.00
2013-3-1,29,28,27,27,-72,-100,100,100,97,30.04,29.99,0,-999,0,0.00
2013-3-2,28,27,25,28,-68,-100,100,99,90,30.02,29.98,0,-999,0,0.00
2013-3-3,26,25,23,25,-17,-100,100,89,68,30.04,29.98,0,-999,0,0.00
2013-3-4,33,25,18,23,-6,-100,100,81,54,30.14,30.04,0,-999,0,0.00
2013-3-5,36,29,22,32,-3,-100,100,88,56,30.11,29.69,0,-999,0,0.00
2013-3-6,43,35,31,34,-23,-100,100,89,58,30.18,29.69,0,-999,0,0.00
2013-3-7,36,34,31,35,-93,-100,100,100,93,30.37,30.18,0,-999,0,0.00
2013-3-8,37,31,27,33,-63,-100,100,97,81,30.48,30.37,0,-999,0,0.00
2013-3-9,52,38,25,33,-25,-100,100,73,39,30.44,30.09,0,-999,0,0.00
2013-3-10,69,58,49,34,31,28,50,37,26,30.09,29.86,0,-999,0,0.00
2013-3-11,63,53,44,53,-29,-100,100,79,31,29.86,29.55,0,-999,0,0.00
2013-3-12,42,37,34,37,26,-100,100,79,68,29.98,29.76,0,-999,0,0.00
2013-3-13,33,31,28,29,23,14,90,72,48,30.17,29.90,0,-999,0,0.00
2013-3-14,39,32,26,23,18,14,76,58,48,30.24,30.11,0,-999,0,0.00
2013-3-15,43,36,31,36,2,-100,100,77,62,30.11,29.86,0,-999,0,0.00
2013-3-16,35,32,30,30,-71,-100,100,99,92,30.02,29.69,0,-999,0,0.00
2013-3-17,33,30,28,30,11,-100,100,78,57,30.23,30.02,0,-999,0,0.00
2013-3-18,45,35,27,22,-60,-100,100,88,64,30.19,29.56,0,-999,0,0.00
2013-3-19,41,32,27,35,10,-100,100,71,53,29.88,29.67,0,-999,0,0.00
2013-3-20,30,28,25,25,19,11,96,69,53,29.92,29.89,0,-999,0,0.00
2013-3-21,30,24,18,26,7,-100,100,81,55,29.91,29.87,0,-999,0,0.00
2013-3-22,36,30,27,27,23,20,99,76,55,30.01,29.91,0,-999,0,0.00
2013-3-23,39,31,24,30,3,-100,100,78,53,30.07,30.00,0,-999,0,0.00
2013-3-24,35,31,27,26,24,20,89,73,53,30.04,29.52,0,-999,0,0.00
2013-3-25,34,33,31,29,-84,-100,100,97,70,29.83,29.45,0,-999,0,0.00
2013-3-26,42,36,34,36,-43,-100,100,91,61,30.10,29.83,0,-999,0,0.00
2013-3-27,45,38,33,35,-17,-100,100,74,44,30.18,30.09,0,-999,0,0.00
2013-3-28,44,40,35,31,29,27,81,65,52,30.27,30.17,0,-999,0,0.00
2013-3-29,49,43,35,31,25,17,83,52,30,30.28,30.22,0,-999,0,0.00
2013-3-30,56,44,32,27,23,20,69,46,25,30.24,29.98,0,-999,0,0.00
2013-3-31,53,48,44,49,26,-100,100,59,37,29.98,29.67,0,-999,0,0.00
2013-4-1,49,38,33,43,16,-100,100,57,31,30.08,29.67,0,-999,0,0.00
2013-4-2,40,33,27,26,15,10,97,49,32,30.21,30.08,0,-999,0,0.00
2013-4-3,38,33,29,21,14,7,58,45,32,30.45,30.21,0,-999,0,0.00
2013-4-4,56,38,26,19,12,1,55,38,10,30.40,29.96,0,-999,0,0.00
2013-4-5,45,41,34,37,24,13,92,52,31,30.23,29.93,0,-999,0,0.00
2013-4-6,57,42,30,15,12,7,52,32,15,30.27,29.90,0,-999,0,0.00
2013-4-7,68,58,46,46,32,10,68,40,15,30.04,29.76,0,-999,0,0.00
2013-4-8,71,58,41,54,44,37,87,62,44,30.05,29.80,0,-999,0,0.00
2013-4-9,80,60,46,55,21,-100,100,70,39,30.12,29.86,0,-999,0,0.00
2013-4-10,63,49,40,60,-51,-100,100,96,72,29.96,29.83,0,-999,0,0.00
2013-4-11,45,42,39,-100,-100,-100,100,100,100,29.93,29.62,0,-999,0,0.00
2013-4-12,46,42,40,38,-48,-100,100,91,71,29.85,29.46,0,-999,0,0.00
2013-4-13,44,41,39,39,26,-100,100,77,60,30.03,29.84,0,-999,0,0.00
2013-4-14,54,44,35,39,34,31,90,68,51,30.13,29.96,0,-999,0,0.00
2013-4-15,69,61,52,52,44,35,69,53,44,30.03,29.93,0,-999,0,0.00
2013-4-16,68,58,51,65,-22,-100,100,88,66,30.20,29.95,0,-999,0,0.00
2013-4-17,58,51,44,45,-12,-100,100,73,45,30.31,30.05,0,-999,0,0.00
2013-4-18,84,69,50,64,38,-100,100,71,33,30.05,29.68,0,-999,0,0.00
2013-4-19,72,54,41,62,7,-100,100,73,49,29.84,29.39,0,-999,0,0.00
2013-4-20,43,39,34,33,27,22,85,63,48,30.43,29.84,0,-999,0,0.00
2013-4-21,46,40,33,31,26,23,78,59,44,30.62,30.43,0,-999,0,0.00
2013-4-22,64,50,37,38,30,24,64,48,27,30.49,30.22,0,-999,0,0.00
2013-4-23,72,60,46,41,33,25,53,37,28,30.22,29.88,0,-999,0,0.00
2013-4-24,61,48,37,52,-74,-100,100,94,61,30.17,29.74,0,-999,0,0.00
2013-4-25,51,42,34,42,6,-100,100,79,44,30.36,30.17,0,-999,0,0.00
2013-4-26,56,45,34,38,-4,-100,100,65,31,30.49,30.36,0,-999,0,0.00
2013-4-27,70,54,42,40,34,28,75,49,24,30.40,30.12,0,-999,0,0.00
2013-4-28,58,55,50,49,-39,-100,100,83,54,30.12,29.87,0,-999,0,0.00
2013-4-29,68,60,56,60,-28,-100,100,89,57,29.99,29.87,0,-999,0,0.00
2013-4-30,77,65,54,59,-7,-100,100,72,39,30.13,29.99,0,-999,0,0.00
2013-5-1,81,70,57,56,54,47,94,60,33,30.27,30.13,0,-999,0,0.00
2013-5-2,77,69,59,47,41,32,45,36,25,30.32,30.17,0,-999,0,0.00
2013-5-3,77,69,59,43,37,31,48,32,18,30.20,30.09,0,-999,0,0.00
2013-5-4,73,65,55,43,37,30,50,36,23,30.17,30.07,0,-999,0,0.00
2013-5-5,75,66,56,40,34,23,52,33,16,30.11,30.00,0,-999,0,0.00
2013-5-6,73,64,54,50,40,23,52,41,20,30.06,29.98,0,-999,0,0.00
2013-5-7,71,64,59,57,54,50,92,70,50,30.05,29.98,0,-999,0,0.00
2013-5-8,70,64,55,59,21,-100,100,75,51,30.01,29.96,0,-999,0,0.00
2013-5-9,78,67,57,59,-18,-100,100,61,18,30.00,29.95,0,-999,0,0.00
2013-5-10,73,65,54,67,-22,-100,100,83,32,29.96,29.77,0,-999,0,0.00
2013-5-11,55,49,45,55,-74,-100,100,99,90,29.88,29.81,0,-999,0,0.00
2013-5-12,52,44,39,40,16,-100,100,69,36,30.09,29.91,0,-999,0,0.00
2013-5-13,51,44,37,34,27,20,90,52,33,30.20,30.08,0,-999,0,0.00
2013-5-14,68,54,41,42,33,25,58,45,34,30.17,29.80,0,-999,0,0.00
2013-5-15,84,72,60,61,51,40,88,50,26,29.81,29.70,0,-999,0,0.00
2013-5-16,80,69,58,55,38,-100,83,48,21,29.99,29.79,0,-999,0,0.00
2013-5-17,70,62,56,51,44,39,83,53,33,30.13,29.99,0,-999,0,0.00
2013-9-12,75,71,62,73,20,-100,100,87,67,29.92,29.84,0,-999,0,0.00
2013-9-13,62,59,56,60,21,-100,100,85,64,30.10,29.90,0,-999,0,0.00
2013-9-14,63,57,52,53,45,41,95,64,51,30.19,30.10,0,-999,0,0.00
2013-9-15,68,58,50,53,-20,-100,100,84,49,30.17,30.07,0,-999,0,0.00
2013-9-16,64,61,57,62,10,-100,100,87,67,30.34,30.12,0,-999,0,0.00
2013-9-17,69,58,46,57,29,-100,100,70,34,30.41,30.25,0,-999,0,0.00
2013-9-18,64,56,54,51,41,-100,100,73,58,30.25,30.11,0,-999,0,0.00
2013-9-19,78,69,61,72,-36,-100,100,95,74,30.11,30.00,0,-999,0,0.00
2013-9-20,84,74,67,77,-22,-100,100,91,63,30.01,29.78,0,-999,0,0.00
2013-9-21,68,64,61,65,-46,-100,100,96,80,29.83,29.68,0,-999,0,0.00
2013-9-22,62,57,55,53,47,44,79,68,60,30.05,29.83,0,-999,0,0.00
2013-9-23,59,55,50,48,45,43,84,69,57,30.17,30.05,0,-999,0,0.00
2013-9-24,65,54,43,54,-7,-100,100,80,50,30.15,29.99,0,-999,0,0.00
2013-9-25,71,58,47,56,14,-100,100,81,45,30.01,29.92,0,-999,0,0.00
2013-9-26,69,58,49,53,-2,-100,100,77,44,30.13,29.98,0,-999,0,0.00
2013-9-27,71,61,51,60,10,-100,100,79,48,30.22,30.13,0,-999,0,0.00
2013-9-28,77,65,53,56,35,-100,100,72,41,30.23,30.10,0,-999,0,0.00
2013-9-29,73,65,57,62,45,-100,100,80,60,30.10,29.99,0,-999,0,0.00
2013-9-30,68,63,61,67,-86,-100,100,100,99,30.03,29.97,0,-999,0,0.00
2013-10-1,60,60,60,-100,-100,-100,100,100,100,30.00,30.00,0,-999,0,0.00
2013-10-17,57,52,50,-100,-100,-100,100,92,64,29.90,29.79,0,-999,0,0.00
2013-10-18,63,54,44,-100,-100,-100,100,75,46,29.98,29.87,0,-999,0,0.00
2013-10-19,54,46,42,-100,-100,-100,100,95,66,29.92,29.77,0,-999,0,0.00
2013-10-20,62,49,40,-100,-100,-100,100,73,36,29.96,29.90,0,-999,0,0.00
2013-10-21,65,54,48,-100,-100,-100,100,64,40,29.96,29.82,0,-999,0,0.00
2013-10-22,49,44,37,-100,-100,-100,100,64,42,29.97,29.86,0,-999,0,0.00
2013-10-23,46,41,38,-100,-100,-100,100,83,52,29.93,29.79,0,-999,0,0.00
2013-10-24,46,38,35,-100,-100,-100,100,83,50,30.14,29.91,0,-999,0,0.00
2013-10-25,46,39,34,-100,-100,-100,100,80,42,30.34,30.14,0,-999,0,0.00
2013-10-26,47,41,37,-100,-100,-100,100,62,45,30.20,29.85,0,-999,0,0.00
2013-10-27,51,42,35,-100,-100,-100,100,79,49,30.10,29.98,0,-999,0,0.00
2013-10-28,54,44,36,-100,-100,-100,95,79,56,30.34,30.07,0,-999,0,0.00
2013-10-29,55,45,35,-100,-100,-100,100,82,47,30.41,30.25,0,-999,0,0.00
2013-10-30,65,53,42,-100,-100,-100,94,74,53,30.25,30.01,0,-999,0,0.00
2013-10-31,66,61,58,-100,-100,-100,100,97,75,30.01,29.27,0,-999,0,0.00
2013-11-1,62,54,49,-100,-100,-100,100,81,66,29.70,29.23,0,-999,0,0.00
2013-11-2,49,47,45,-100,-100,-100,100,95,83,30.03,29.67,0,-999,0,0.00
2013-11-3,46,42,35,-100,-100,-100,86,71,59,30.47,30.03,0,-999,0,0.00
2013-11-4,48,39,31,-100,-100,-100,73,53,32,30.52,30.37,0,-999,0,0.00
2013-11-5,59,52,43,-100,-100,-100,60,54,50,30.41,30.26,0,-999,0,0.00
2013-11-6,65,56,51,-100,-100,-100,100,64,45,30.26,29.90,0,-999,0,0.00
2013-11-7,47,43,39,-100,-100,-100,100,78,52,30.12,29.95,0,-999,0,0.00
2013-11-8,42,38,33,-100,-100,-100,100,71,47,30.29,30.10,0,-999,0,0.00
2013-11-9,58,47,33,-100,-100,-100,82,56,38,30.25,29.87,0,-999,0,0.00
2013-11-10,54,45,38,-100,-100,-100,72,57,49,30.28,29.92,0,-999,0,0.00
2013-11-11,48,39,30,-100,-100,-100,100,78,44,30.27,30.03,0,-999,0,0.00
2013-11-12,35,32,30,-100,-100,-100,100,72,49,30.50,30.23,0,-999,0,0.00
2013-11-13,37,32,27,-100,-100,-100,76,56,41,30.53,30.27,0,-999,0,0.00
2013-11-14,52,40,30,-100,-100,-100,61,41,24,30.27,30.07,0,-999,0,0.00
2013-11-15,51,46,41,-100,-100,-100,52,38,30,30.13,30.07,0,-999,0,0.00
2013-11-16,59,51,42,-100,-100,-100,90,77,55,30.17,29.90,0,-999,0,0.00
2013-11-17,63,60,53,-100,-100,-100,100,88,56,29.90,29.43,0,-999,0,0.00
2013-11-18,52,44,37,-100,-100,-100,77,65,57,30.12,29.57,0,-999,0,0.00
2013-11-19,40,36,30,-100,-100,-100,82,61,54,30.41,30.12,0,-999,0,0.00
2013-11-20,47,37,27,-100,-100,-100,94,53,23,30.44,30.29,0,-999,0,0.00
2013-11-21,45,42,40,-100,-100,-100,100,76,33,30.36,30.20,0,-999,0,0.00
2013-11-22,49,44,37,-100,-100,-100,100,97,72,30.34,30.14,0,-999,0,0.00
2013-11-23,36,30,23,-100,-100,-100,95,66,43,30.43,30.23,0,-999,0,0.00
2013-11-24,24,22,20,-100,-100,-100,67,53,45,30.55,30.43,0,-999,0,0.00
2013-11-25,35,26,19,17,-81,-100,78,57,37,30.46,30.16,0,-999,0,0.00
2013-11-26,34,33,31,31,-11,-100,100,82,43,30.16,29.85,0,-999,0,0.00
2013-11-27,35,29,25,34,-11,-100,100,77,56,30.14,29.81,0,-999,0,0.00
2013-11-28,29,25,21,21,16,12,96,67,57,30.41,30.14,0,-999,0,0.00
2013-11-29,33,28,23,23,20,18,88,72,58,30.64,30.41,0,-999,0,0.00
2013-11-30,41,33,26,26,22,18,73,64,50,30.60,30.15,0,-999,0,0.00
2013-12-1,43,39,35,32,29,27,85,68,58,30.15,29.97,0,-999,0,0.00
2013-12-2,40,37,35,36,6,-100,100,89,75,29.97,29.87,0,-999,0,0.00
2013-12-4,61,56,47,50,48,44,89,74,67,29.93,29.74,0,-999,0,0.00
2013-12-5,62,52,36,59,46,31,96,81,59,30.13,29.73,0,-999,0,0.00
2013-12-6,34,32,28,31,-36,-100,100,89,69,30.34,30.11,0,-999,0,0.00
2013-12-7,28,25,21,23,1,-100,100,72,58,30.59,30.34,0,-999,0,0.00
2013-12-8,29,25,20,26,11,-100,100,72,55,30.59,30.01,0,-999,0,0.00
2013-12-9,34,31,26,28,-34,-100,100,85,68,30.14,29.91,0,-999,0,0.00
2013-12-10,27,23,20,15,10,1,72,57,33,30.24,29.99,0,-999,0,0.00
2013-12-11,25,21,18,23,0,-100,100,79,64,30.42,30.23,0,-999,0,0.00
2013-12-12,19,16,8,10,2,-4,84,57,35,30.44,30.23,0,-999,0,0.00
2013-12-13,30,24,18,20,12,2,73,58,48,30.25,30.19,0,-999,0,0.00
2013-12-14,32,29,25,22,-85,-100,100,97,71,30.23,29.67,0,-999,0,0.00
2013-12-15,33,23,15,24,-48,-100,100,90,74,30.04,29.67,0,-999,0,0.00
2013-12-16,22,17,11,15,6,-100,100,76,62,30.17,29.99,0,-999,0,0.00
2013-12-17,27,25,21,26,-28,-100,100,94,82,30.03,29.92,0,-999,0,0.00
2013-12-18,30,26,23,25,21,15,96,79,62,30.14,29.96,0,-999,0,0.00
2013-12-19,46,39,30,35,27,16,71,60,49,30.01,29.94,0,-999,0,0.00
2013-12-20,55,47,42,47,-60,-100,100,92,61,29.94,29.78,0,-999,0,0.00
2013-12-21,57,45,36,-100,-100,-100,100,100,100,29.83,29.49,0,-999,0,0.00
2013-12-22,61,49,36,60,-62,-100,100,96,73,29.98,29.46,0,-999,0,0.00
2013-12-23,39,34,28,31,-23,-100,100,82,60,30.31,29.98,0,-999,0,0.00
2013-12-24,28,20,15,23,13,8,95,76,61,30.53,30.28,0,-999,0,0.00
2013-12-25,28,22,14,24,13,10,95,71,53,30.50,30.15,0,-999,0,0.00
2013-12-26,31,28,25,29,6,-100,100,77,58,30.33,30.07,0,-999,0,0.00
2013-12-27,41,36,27,29,25,19,73,64,56,30.34,30.17,0,-999,0,0.00
2013-12-28,53,45,39,32,29,27,68,55,40,30.17,29.98,0,-999,0,0.00
2013-12-29,43,40,29,40,-13,-100,100,76,47,29.98,29.71,0,-999,0,0.00
2013-12-30,27,22,20,25,-18,-100,100,86,60,30.25,29.95,0,-999,0,0.00
2013-12-31,23,20,18,21,7,-100,100,76,59,30.28,30.06,0,-999,0,0.00